| time (UTC) | temp C | wind direction | speed KPH | gust KPH | rain 1hr cm | rain 24hr cm | rain mn cm | humidity % | barometer mb |
| 20260906104528 | 22 | 67 | 4.8 | 8.0 | 0.00 | 0.00 | 0.00 | 96 | 1011.1 |
| 20260906103023 | 22 | 294 | 12.9 | 17.7 | 0.00 | 0.00 | 0.00 | 94 | 1011.1 |
| 20260906101528 | 22 | 347 | 8.0 | 20.9 | 0.00 | 0.00 | 0.00 | 94 | 1010.8 |
| 20260906100029 | 22 | 162 | 8.0 | 16.1 | 0.00 | 0.00 | 0.00 | 94 | 1009.7 |
| 20260906094515 | 22 | 155 | 8.0 | 12.9 | 0.00 | 0.00 | 0.00 | 93 | 1010.1 |
| 20260906093015 | 23 | 149 | 1.6 | 9.7 | 0.00 | 0.00 | 0.00 | 92 | 1010.6 |
| 20260906091512 | 23 | 139 | 4.8 | 8.0 | 0.00 | 0.00 | 0.00 | 92 | 1010.7 |
| 20260906090011 | 23 | 117 | 1.6 | 9.7 | 0.00 | 0.00 | 0.00 | 91 | 1010.9 |
| 20260906084512 | 23 | 65 | 3.2 | 9.7 | 0.00 | 0.00 | 0.00 | 91 | 1011.1 |
| 20260906083010 | 23 | 53 | 6.4 | 16.1 | 0.00 | 0.00 | 0.00 | 91 | 1011.5 |
| 20260906081513 | 23 | 44 | 9.7 | 16.1 | 0.00 | 0.00 | 0.00 | 92 | 1011.4 |
| 20260906080008 | 23 | 88 | 3.2 | 9.7 | 0.00 | 0.00 | 0.00 | 92 | 1011.1 |
| 20260906074508 | 23 | 70 | 6.4 | 11.3 | 0.00 | 0.00 | 0.00 | 92 | 1011.0 |
| 20260906073007 | 23 | 32 | 4.8 | 12.9 | 0.00 | 0.00 | 0.00 | 93 | 1011.4 |
| 20260906071505 | 23 | 32 | 6.4 | 12.9 | 0.00 | 0.00 | 0.00 | 93 | 1011.1 |
| 20260906070003 | 23 | 24 | 3.2 | 6.4 | 0.00 | 0.00 | 0.00 | 93 | 1011.0 |
| 20260906064603 | 23 | 223 | 1.6 | 3.2 | 0.00 | 0.00 | 0.00 | 93 | 1010.9 |
| 20260906063056 | 23 | 271 | 4.8 | 9.7 | 0.00 | 0.00 | 0.00 | 90 | 1010.9 |
| 20260906061554 | 23 | 99 | 0.0 | 1.6 | 0.00 | 0.00 | 0.00 | 90 | 1010.9 |
| 20260906060121 | 23 | 99 | 0.0 | 6.4 | 0.00 | 0.00 | 0.00 | 90 | 1010.9 |
| 20260906054605 | 24 | 128 | 1.6 | 4.8 | 0.00 | 0.00 | 0.00 | 90 | 1010.8 |
| 20260906053050 | 24 | 128 | 1.6 | 4.8 | 0.00 | 0.00 | 0.00 | 91 | 1010.6 |
| 20260906051548 | 24 | 128 | 0.0 | 1.6 | 0.00 | 0.00 | 0.00 | 91 | 1010.9 |
| 20260906050046 | 24 | 128 | 0.0 | 3.2 | 0.00 | 0.00 | 0.00 | 90 | 1011.0 |
| 20260906044545 | 25 | 128 | 0.0 | 1.6 | 0.00 | 0.00 | 0.00 | 88 | 1011.1 |
| 20260906043044 | 26 | 128 | 1.6 | 3.2 | 0.00 | 0.00 | 0.00 | 85 | 1011.2 |
| 20260906041544 | 26 | 126 | 0.0 | 3.2 | 0.00 | 0.00 | 0.00 | 84 | 1011.3 |
| 20260906040043 | 26 | 126 | 0.0 | 0.0 | 0.00 | 0.00 | 0.00 | 84 | 1011.5 |
| 20260906034558 | 26 | 126 | 1.6 | 4.8 | 0.00 | 0.00 | 0.00 | 84 | 1011.6 |
| 20260906033045 | 26 | 138 | 3.2 | 4.8 | 0.00 | 0.00 | 0.00 | 84 | 1011.5 |
| 20260906031541 | 26 | 186 | 0.0 | 0.0 | 0.00 | 0.00 | 0.00 | 83 | 1011.3 |
| 20260906030043 | 26 | 186 | 0.0 | 0.0 | 0.00 | 0.00 | 0.00 | 84 | 1011.3 |
| 20260906024541 | 26 | 213 | 1.6 | 4.8 | 0.00 | 0.00 | 0.00 | 84 | 1011.1 |
| 20260906023039 | 26 | 213 | 0.0 | 0.0 | 0.00 | 0.00 | 0.00 | 84 | 1011.1 |
| 20260906021543 | 27 | 215 | 0.0 | 0.0 | 0.00 | 0.00 | 0.00 | 82 | 1011.1 |
| 20260906020039 | 27 | 215 | 0.0 | 1.6 | 0.00 | 0.00 | 0.00 | 82 | 1011.2 |
| 20260906014547 | 27 | 215 | 0.0 | 3.2 | 0.00 | 0.00 | 0.00 | 81 | 1011.3 |
| 20260906013037 | 27 | 167 | 0.0 | 1.6 | 0.00 | 0.00 | 0.00 | 80 | 1010.8 |
| 20260906011536 | 27 | 166 | 1.6 | 9.7 | 0.00 | 0.00 | 0.00 | 78 | 1010.2 |
| 20260906010040 | 28 | 74 | 0.0 | 11.3 | 0.00 | 0.00 | 0.00 | 78 | 1010.1 |
| 20260906004538 | 28 | 63 | 8.0 | 11.3 | 0.00 | 0.00 | 0.00 | 77 | 1009.8 |
| 20260906003034 | 28 | 360 | 1.6 | 6.4 | 0.00 | 0.00 | 0.00 | 73 | 1009.5 |
| 20260906001547 | 29 | 45 | 3.2 | 4.8 | 0.00 | 0.00 | 0.00 | 72 | 1009.6 |
| 20260906000036 | 29 | 281 | 0.0 | 4.8 | 0.00 | 0.00 | 0.00 | 71 | 1009.9 |
| 20260905234533 | 30 | 232 | 1.6 | 8.0 | 0.00 | 0.00 | 0.00 | 70 | 1010.1 |
| 20260905233033 | 30 | 215 | 1.6 | 8.0 | 0.00 | 0.00 | 0.00 | 69 | 1010.1 |
| 20260905231531 | 30 | 103 | 3.2 | 12.9 | 0.00 | 0.00 | 0.00 | 68 | 1009.8 |
| 20260905230034 | 30 | 63 | 4.8 | 9.7 | 0.00 | 0.00 | 0.00 | 67 | 1009.4 |
| 20260905224533 | 29 | 28 | 4.8 | 8.0 | 0.00 | 0.00 | 0.00 | 67 | 1009.6 |
| 20260905223042 | 28 | 80 | 3.2 | 9.7 | 0.00 | 0.00 | 0.00 | 67 | 1009.9 |
| 20260905221528 | 29 | 93 | 8.0 | 16.1 | 0.00 | 0.00 | 0.00 | 67 | 1009.7 |
| 20260905220028 | 29 | 62 | 14.5 | 24.1 | 0.00 | 0.00 | 0.00 | 67 | 1009.7 |
| 20260905214526 | 31 | 65 | 19.3 | 30.6 | 0.00 | 0.00 | 0.00 | 62 | 1009.8 |
| 20260905213026 | 34 | 84 | 20.9 | 29.0 | 0.00 | 0.00 | 0.00 | 53 | 1009.8 |
| 20260905211525 | 35 | 59 | 16.1 | 27.4 | 0.00 | 0.00 | 0.00 | 49 | 1009.7 |
| 20260905210033 | 35 | 113 | 6.4 | 22.5 | 0.00 | 0.00 | 0.00 | 50 | 1009.6 |
| 20260905204522 | 35 | 92 | 9.7 | 19.3 | 0.00 | 0.00 | 0.00 | 51 | 1009.6 |
| 20260905203020 | 35 | 33 | 8.0 | 20.9 | 0.00 | 0.00 | 0.00 | 51 | 1009.7 |
| 20260905201523 | 35 | 323 | 6.4 | 14.5 | 0.00 | 0.00 | 0.00 | 52 | 1009.8 |
| 20260905200018 | 35 | 27 | 4.8 | 17.7 | 0.00 | 0.00 | 0.00 | 53 | 1010.2 |
| 20260905194514 | 34 | 29 | 8.0 | 19.3 | 0.00 | 0.00 | 0.00 | 54 | 1010.2 |
| 20260905193018 | 34 | 19 | 8.0 | 19.3 | 0.00 | 0.00 | 0.00 | 53 | 1010.4 |
| 20260905191510 | 34 | 22 | 6.4 | 16.1 | 0.00 | 0.00 | 0.00 | 54 | 1010.7 |
| 20260905190009 | 34 | 84 | 9.7 | 19.3 | 0.00 | 0.00 | 0.00 | 54 | 1010.9 |
| 20260905184507 | 33 | 348 | 4.8 | 9.7 | 0.00 | 0.00 | 0.00 | 56 | 1011.0 |
| 20260905183004 | 34 | 5 | 4.8 | 14.5 | 0.00 | 0.00 | 0.00 | 57 | 1011.1 |
| 20260905181502 | 33 | 58 | 16.1 | 20.9 | 0.00 | 0.00 | 0.00 | 57 | 1011.4 |
| 20260905180058 | 33 | 340 | 9.7 | 22.5 | 0.00 | 0.00 | 0.00 | 59 | 1011.6 |
| 20260905174603 | 33 | 96 | 8.0 | 20.9 | 0.00 | 0.00 | 0.00 | 58 | 1011.7 |
| 20260905173056 | 33 | 52 | 6.4 | 19.3 | 0.00 | 0.00 | 0.00 | 60 | 1011.9 |
| 20260905171556 | 33 | 82 | 9.7 | 20.9 | 0.00 | 0.00 | 0.00 | 60 | 1012.0 |
| 20260905170056 | 33 | 75 | 4.8 | 12.9 | 0.00 | 0.00 | 0.00 | 60 | 1012.0 |
| 20260905164554 | 33 | 119 | 9.7 | 20.9 | 0.00 | 0.00 | 0.00 | 62 | 1012.3 |
| 20260905163050 | 32 | 36 | 1.6 | 17.7 | 0.00 | 0.00 | 0.00 | 64 | 1012.4 |
| 20260905161548 | 32 | 74 | 6.4 | 17.7 | 0.00 | 0.00 | 0.00 | 65 | 1012.7 |
| 20260905160048 | 32 | 65 | 12.9 | 20.9 | 0.00 | 0.00 | 0.00 | 65 | 1012.9 |
| 20260905154542 | 32 | 42 | 11.3 | 16.1 | 0.00 | 0.00 | 0.00 | 67 | 1013.0 |
| 20260905153040 | 31 | 30 | 8.0 | 14.5 | 0.00 | 0.00 | 0.00 | 68 | 1012.8 |
| 20260905151537 | 31 | 58 | 8.0 | 17.7 | 0.00 | 0.00 | 0.00 | 70 | 1013.0 |
| 20260905150034 | 30 | 98 | 4.8 | 14.5 | 0.00 | 0.00 | 0.00 | 72 | 1013.0 |
| 20260905144539 | 30 | 59 | 4.8 | 9.7 | 0.00 | 0.00 | 0.00 | 74 | 1013.2 |
| 20260905143034 | 29 | 38 | 3.2 | 8.0 | 0.00 | 0.00 | 0.00 | 76 | 1013.2 |
| 20260905141526 | 28 | 91 | 3.2 | 6.4 | 0.00 | 0.00 | 0.00 | 77 | 1013.2 |
| 20260905140021 | 27 | 93 | 3.2 | 6.4 | 0.00 | 0.00 | 0.00 | 81 | 1013.5 |
| 20260905134527 | 26 | 322 | 1.6 | 4.8 | 0.00 | 0.00 | 0.00 | 84 | 1013.6 |
| 20260905133014 | 26 | 5 | 1.6 | 3.2 | 0.00 | 0.00 | 0.00 | 87 | 1013.8 |
| 20260905131511 | 25 | 311 | 3.2 | 6.4 | 0.00 | 0.00 | 0.00 | 88 | 1013.9 |
| 20260905130010 | 24 | 313 | 3.2 | 6.4 | 0.00 | 0.00 | 0.00 | 92 | 1014.0 |
| 20260905124514 | 23 | 32 | 3.2 | 4.8 | 0.00 | 0.00 | 0.00 | 95 | 1013.9 |
| 20260905123027 | 22 | 296 | 0.0 | 6.4 | 0.00 | 0.00 | 0.00 | 95 | 1013.9 |
| 20260905121506 | 22 | 279 | 3.2 | 6.4 | 0.00 | 0.00 | 0.00 | 94 | 1013.7 |
| 20260905120004 | 22 | 121 | 0.0 | 0.0 | 0.00 | 0.00 | 0.00 | 94 | 1013.4 |
| 20260905114501 | 22 | 77 | 0.0 | 0.0 | 0.00 | 0.00 | 0.00 | 94 | 1013.1 |
| 20260905113106 | 22 | 77 | 0.0 | 0.0 | 0.00 | 0.00 | 0.00 | 95 | 1012.9 |
| 20260905111604 | 22 | 77 | 0.0 | 0.0 | 0.00 | 0.00 | 0.00 | 94 | 1012.7 |
| 20260905110057 | 22 | 77 | 0.0 | 0.0 | 0.00 | 0.00 | 0.00 | 94 | 1012.6 |